createdAt,value
2018-03-31T00:01:47.361Z,78.20
2018-03-31T00:04:13.416Z,78.20
2018-03-31T00:06:39.463Z,78.00
2018-03-31T00:09:05.523Z,78.30
2018-03-31T00:11:31.589Z,78.80
2018-03-31T00:13:57.674Z,79.10
2018-03-31T00:16:23.715Z,79.00
2018-03-31T00:18:49.812Z,79.30
2018-03-31T00:21:15.863Z,79.20
2018-03-31T00:23:41.982Z,79.30
2018-03-31T00:26:08.255Z,79.30
2018-03-31T00:28:34.303Z,79.50
2018-03-31T00:31:00.375Z,79.60
2018-03-31T00:33:26.536Z,79.80
2018-03-31T00:35:52.623Z,80.00
2018-03-31T00:38:18.675Z,79.80
2018-03-31T00:40:44.736Z,80.00
2018-03-31T00:43:10.782Z,79.60
2018-03-31T00:45:36.856Z,79.80
2018-03-31T00:48:02.909Z,79.90
2018-03-31T00:50:29.740Z,80.60
2018-03-31T00:52:55.845Z,80.10
2018-03-31T00:55:21.915Z,80.40
2018-03-31T00:57:47.979Z,80.70
2018-03-31T01:00:14.278Z,80.90
2018-03-31T01:02:40.335Z,81.00
2018-03-31T01:05:06.411Z,81.10
2018-03-31T01:07:32.456Z,80.90
2018-03-31T01:09:58.527Z,80.90
2018-03-31T01:12:24.581Z,80.90
2018-03-31T01:14:50.799Z,80.70
2018-03-31T01:17:16.851Z,80.70
2018-03-31T01:19:42.906Z,81.20
2018-03-31T01:22:09.011Z,81.30
2018-03-31T01:24:35.059Z,81.40
2018-03-31T01:27:01.127Z,82.00
2018-03-31T01:29:27.180Z,82.00
2018-03-31T01:31:53.242Z,81.80
2018-03-31T01:34:19.287Z,81.80
2018-03-31T01:36:45.363Z,82.00
2018-03-31T01:39:12.147Z,81.70
2018-03-31T01:41:38.235Z,81.70
2018-03-31T01:44:04.295Z,81.60
2018-03-31T01:46:30.379Z,81.70
2018-03-31T01:48:56.419Z,81.50
2018-03-31T01:51:22.487Z,81.70
2018-03-31T01:53:48.518Z,81.30
2018-03-31T01:56:14.575Z,81.40
2018-03-31T01:58:40.610Z,82.20
2018-03-31T02:01:07.271Z,81.80
2018-03-31T02:03:33.379Z,81.90
2018-03-31T02:05:59.460Z,81.80
2018-03-31T02:08:25.531Z,81.80
2018-03-31T02:10:51.676Z,82.10
2018-03-31T02:13:18.325Z,82.10
2018-03-31T02:15:44.379Z,82.40
2018-03-31T02:18:10.447Z,82.10
2018-03-31T02:20:36.491Z,81.70
2018-03-31T02:23:02.556Z,82.00
2018-03-31T02:25:29.090Z,82.50
2018-03-31T02:27:55.156Z,82.70
2018-03-31T02:30:21.401Z,82.90
2018-03-31T02:32:47.474Z,82.80
2018-03-31T02:35:13.508Z,81.90
2018-03-31T02:37:39.634Z,81.80
2018-03-31T02:40:05.664Z,82.10
2018-03-31T02:42:31.749Z,82.60
2018-03-31T02:44:58.551Z,82.50
2018-03-31T02:47:24.611Z,82.40
2018-03-31T02:49:51.502Z,82.40
2018-03-31T02:52:17.559Z,82.40
2018-03-31T02:54:43.604Z,82.20
2018-03-31T02:57:10.448Z,82.80
2018-03-31T02:59:37.235Z,82.70
2018-03-31T03:02:03.299Z,82.70
2018-03-31T03:04:29.350Z,82.40
2018-03-31T03:06:56.150Z,82.50
2018-03-31T03:09:22.215Z,82.40
2018-03-31T03:11:48.990Z,83.00
2018-03-31T03:14:15.067Z,82.80
2018-03-31T03:16:41.120Z,82.50
2018-03-31T03:19:07.187Z,82.50
2018-03-31T03:21:33.484Z,82.60
2018-03-31T03:23:59.573Z,82.80
2018-03-31T03:26:25.998Z,83.00
2018-03-31T03:28:52.054Z,83.20
2018-03-31T03:31:18.102Z,83.50
2018-03-31T03:33:44.194Z,83.20
2018-03-31T03:36:10.268Z,83.30
2018-03-31T03:38:36.344Z,83.50
2018-03-31T03:41:02.403Z,83.40
2018-03-31T03:43:28.524Z,83.20
2018-03-31T03:45:54.560Z,83.20
2018-03-31T03:48:20.775Z,83.30
2018-03-31T03:50:46.828Z,83.20
2018-03-31T03:53:12.909Z,83.60
2018-03-31T03:55:38.969Z,83.50
2018-03-31T03:58:05.014Z,83.30
2018-03-31T04:00:31.115Z,83.40
2018-03-31T04:02:57.299Z,83.20
2018-03-31T04:05:23.363Z,83.20
2018-03-31T04:07:49.631Z,83.20
2018-03-31T04:10:15.720Z,83.10
2018-03-31T04:12:41.775Z,83.00
2018-03-31T04:15:07.846Z,83.00
2018-03-31T04:17:33.920Z,83.00
2018-03-31T04:19:59.991Z,83.20
2018-03-31T04:22:26.024Z,83.10
2018-03-31T04:24:52.087Z,83.00
2018-03-31T04:27:18.144Z,83.40
2018-03-31T04:29:44.207Z,83.20
2018-03-31T04:32:10.248Z,83.80
2018-03-31T04:34:36.320Z,83.40
2018-03-31T04:37:02.375Z,83.10
2018-03-31T04:39:28.436Z,83.10
2018-03-31T04:41:54.556Z,83.00
2018-03-31T04:44:20.623Z,83.30
2018-03-31T04:46:46.658Z,83.30
2018-03-31T04:49:12.719Z,83.40
2018-03-31T04:51:38.788Z,83.60
2018-03-31T04:54:04.859Z,83.60
2018-03-31T04:56:30.919Z,83.80
2018-03-31T04:58:56.990Z,83.50
2018-03-31T05:01:24.907Z,83.70
2018-03-31T05:03:52.396Z,83.60
2018-03-31T05:06:18.796Z,83.30
2018-03-31T05:08:44.944Z,83.30
2018-03-31T05:11:11.010Z,83.30
2018-03-31T05:13:37.079Z,83.20
2018-03-31T05:16:03.171Z,83.50
2018-03-31T05:18:29.227Z,83.10
2018-03-31T05:20:55.338Z,83.20
2018-03-31T05:23:21.383Z,83.20
2018-03-31T05:25:47.918Z,83.00
2018-03-31T05:28:14.667Z,82.70
2018-03-31T05:30:42.124Z,82.80
2018-03-31T05:33:08.216Z,82.70
2018-03-31T05:35:34.280Z,83.00
2018-03-31T05:38:00.952Z,83.00
2018-03-31T05:40:27.802Z,82.70
2018-03-31T05:42:53.877Z,82.70
2018-03-31T05:45:20.874Z,82.70
2018-03-31T05:47:47.169Z,82.70
2018-03-31T05:50:13.252Z,82.90
2018-03-31T05:52:39.324Z,82.90
2018-03-31T05:55:05.376Z,83.00
2018-03-31T05:57:32.178Z,82.90
2018-03-31T05:59:58.219Z,82.90
2018-03-31T06:02:24.335Z,83.00
2018-03-31T06:04:51.433Z,82.60
2018-03-31T06:07:17.531Z,82.70
2018-03-31T06:09:44.577Z,82.80
2018-03-31T06:12:11.402Z,82.80
2018-03-31T06:14:37.464Z,82.70
2018-03-31T06:17:06.099Z,82.30
2018-03-31T06:19:32.851Z,82.00
2018-03-31T06:21:58.999Z,82.10
2018-03-31T06:24:25.042Z,81.90
2018-03-31T06:26:51.097Z,82.20
2018-03-31T06:29:17.228Z,82.50
2018-03-31T06:31:44.217Z,82.40
2018-03-31T06:34:10.806Z,82.10
2018-03-31T06:36:36.947Z,81.80
2018-03-31T06:39:03.778Z,81.40
2018-03-31T06:41:30.191Z,81.40
2018-03-31T06:43:57.758Z,80.90
2018-03-31T06:46:23.944Z,80.90
2018-03-31T06:48:50.104Z,80.30
2018-03-31T06:51:16.149Z,79.60
2018-03-31T06:53:42.971Z,79.30
2018-03-31T06:56:09.272Z,79.30
2018-03-31T06:58:36.232Z,78.80
2018-03-31T07:01:02.393Z,78.80
2018-03-31T07:03:29.250Z,78.20
2018-03-31T07:05:56.107Z,78.50
2018-03-31T07:08:23.436Z,78.50
2018-03-31T07:10:49.617Z,78.90
2018-03-31T07:13:16.013Z,78.70
2018-03-31T07:15:42.291Z,79.10
2018-03-31T07:18:08.890Z,78.90
2018-03-31T07:20:35.080Z,78.80
2018-03-31T07:23:01.155Z,78.50
2018-03-31T07:25:27.240Z,78.70
2018-03-31T07:27:53.314Z,78.80
2018-03-31T07:30:19.354Z,79.00
2018-03-31T07:32:45.405Z,78.40
2018-03-31T07:35:11.653Z,78.40
2018-03-31T07:37:37.864Z,78.30
2018-03-31T07:40:03.939Z,78.00
2018-03-31T07:42:30.146Z,77.40
2018-03-31T07:44:56.238Z,77.10
2018-03-31T07:47:22.285Z,77.30
2018-03-31T07:49:48.365Z,77.20
2018-03-31T07:52:14.416Z,77.40
2018-03-31T07:54:40.473Z,77.30
2018-03-31T07:57:06.692Z,77.10
2018-03-31T07:59:33.227Z,77.60
2018-03-31T08:01:59.267Z,76.60
2018-03-31T08:04:25.396Z,76.10
2018-03-31T08:06:51.416Z,76.30
2018-03-31T08:09:17.475Z,75.90
2018-03-31T08:11:43.528Z,76.00
2018-03-31T08:14:10.327Z,75.10
2018-03-31T08:16:36.362Z,75.10
2018-03-31T08:19:02.431Z,75.40
2018-03-31T08:21:28.495Z,75.40
2018-03-31T08:23:54.515Z,75.20
2018-03-31T08:26:20.591Z,75.10
2018-03-31T08:28:46.642Z,74.60
2018-03-31T08:31:12.699Z,74.00
2018-03-31T08:33:38.742Z,74.40
2018-03-31T08:36:04.802Z,73.40
2018-03-31T08:38:30.834Z,72.00
2018-03-31T08:40:56.898Z,73.80
2018-03-31T08:43:22.952Z,73.20
2018-03-31T08:45:49.426Z,72.40
2018-03-31T08:48:15.508Z,72.60
2018-03-31T08:50:41.842Z,71.60
2018-03-31T08:53:07.979Z,72.80
2018-03-31T08:55:34.379Z,72.70
2018-03-31T08:58:00.431Z,72.10
2018-03-31T09:00:27.307Z,71.90
2018-03-31T09:02:53.339Z,71.90
2018-03-31T09:05:19.424Z,71.90
2018-03-31T09:07:45.464Z,71.80
2018-03-31T09:10:11.700Z,71.30
2018-03-31T09:12:37.971Z,69.60
2018-03-31T09:15:04.075Z,68.60
2018-03-31T09:17:30.175Z,67.00
2018-03-31T09:19:56.231Z,66.60
2018-03-31T09:22:22.315Z,66.60
2018-03-31T09:24:48.334Z,66.80
2018-03-31T09:27:14.411Z,66.20
2018-03-31T09:29:40.451Z,65.20
2018-03-31T09:32:06.514Z,65.30
2018-03-31T09:34:33.302Z,59.60
2018-03-31T09:36:59.373Z,59.60
2018-03-31T09:39:26.167Z,62.00
2018-03-31T09:41:52.248Z,61.90
2018-03-31T09:44:18.356Z,59.90
2018-03-31T09:46:44.454Z,60.50
2018-03-31T09:49:10.500Z,60.80
2018-03-31T09:51:36.553Z,63.70
2018-03-31T09:54:02.839Z,62.00
2018-03-31T09:56:28.935Z,60.50
2018-03-31T09:58:54.970Z,59.80
2018-03-31T10:01:21.030Z,60.40
2018-03-31T10:03:47.095Z,59.00
2018-03-31T10:06:13.159Z,57.70
2018-03-31T10:08:39.204Z,57.20
2018-03-31T10:11:05.239Z,58.30
2018-03-31T10:13:31.298Z,55.10
2018-03-31T10:15:57.363Z,53.60
2018-03-31T10:18:23.429Z,53.50
2018-03-31T10:20:49.479Z,52.00
2018-03-31T10:23:15.615Z,52.70
2018-03-31T10:25:41.656Z,54.10
2018-03-31T10:28:07.719Z,53.30
2018-03-31T10:30:33.776Z,53.10
2018-03-31T10:33:00.067Z,49.20
2018-03-31T10:35:26.188Z,49.90
2018-03-31T10:37:52.264Z,49.10
2018-03-31T10:40:18.307Z,49.30
2018-03-31T10:42:44.375Z,48.30
2018-03-31T10:45:10.444Z,48.80
2018-03-31T10:47:36.519Z,48.60
2018-03-31T10:50:02.580Z,48.50
2018-03-31T10:52:28.645Z,48.60
2018-03-31T10:54:54.670Z,47.80
2018-03-31T10:57:20.735Z,47.70
2018-03-31T10:59:46.876Z,47.50
2018-03-31T11:02:12.942Z,47.40
2018-03-31T11:04:39.020Z,48.80
2018-03-31T11:07:05.152Z,48.00
2018-03-31T11:09:31.223Z,48.10
2018-03-31T11:11:57.276Z,47.40
2018-03-31T11:14:23.468Z,48.50
2018-03-31T11:16:49.543Z,48.80
2018-03-31T11:19:15.667Z,47.90
2018-03-31T11:21:41.907Z,48.10
2018-03-31T11:24:07.982Z,47.70
2018-03-31T11:26:34.040Z,48.90
2018-03-31T11:29:00.142Z,48.70
2018-03-31T11:31:26.180Z,48.50
2018-03-31T11:33:52.242Z,49.10
2018-03-31T11:36:18.436Z,50.60
2018-03-31T11:38:44.519Z,49.00
2018-03-31T11:41:10.672Z,49.50
2018-03-31T11:43:37.490Z,47.60
2018-03-31T11:46:03.551Z,47.60
2018-03-31T11:48:29.612Z,47.50
2018-03-31T11:50:55.660Z,47.40
2018-03-31T11:53:21.689Z,48.50
2018-03-31T11:55:47.767Z,46.10
2018-03-31T11:58:13.838Z,46.20
2018-03-31T12:00:39.935Z,45.80
2018-03-31T12:03:06.019Z,45.90
2018-03-31T12:05:32.092Z,46.70
2018-03-31T12:07:58.205Z,47.90
2018-03-31T12:10:24.311Z,48.30
2018-03-31T12:12:50.350Z,49.00
2018-03-31T12:15:16.408Z,48.80
2018-03-31T12:17:42.453Z,46.90
2018-03-31T12:20:08.568Z,47.50
2018-03-31T12:22:34.641Z,48.40
2018-03-31T12:25:00.696Z,46.90
2018-03-31T12:27:26.731Z,48.00
2018-03-31T12:29:52.795Z,47.40
2018-03-31T12:32:18.854Z,47.80
2018-03-31T12:34:44.912Z,47.40
2018-03-31T12:37:10.947Z,46.80
2018-03-31T12:39:36.999Z,47.00
2018-03-31T12:42:03.030Z,47.10
2018-03-31T12:44:29.075Z,47.20
2018-03-31T12:46:55.147Z,46.90
2018-03-31T12:49:21.932Z,45.70
2018-03-31T12:51:48.066Z,45.60
2018-03-31T12:54:14.072Z,46.60
2018-03-31T12:56:40.143Z,47.70
2018-03-31T12:59:06.183Z,46.20
2018-03-31T13:01:32.271Z,45.60
2018-03-31T13:03:58.298Z,45.80
2018-03-31T13:06:24.351Z,44.80
2018-03-31T13:08:50.470Z,44.10
2018-03-31T13:11:17.706Z,46.20
2018-03-31T13:13:43.771Z,46.20
2018-03-31T13:16:09.866Z,44.80
2018-03-31T13:18:35.922Z,47.20
2018-03-31T13:21:01.982Z,45.00
2018-03-31T13:23:28.040Z,45.80
2018-03-31T13:25:54.091Z,46.70
2018-03-31T13:28:20.151Z,48.20
2018-03-31T13:30:46.228Z,48.40
2018-03-31T13:33:12.279Z,47.30
2018-03-31T13:35:39.271Z,48.20
2018-03-31T13:38:05.339Z,48.20
2018-03-31T13:40:31.387Z,46.00
2018-03-31T13:42:57.452Z,45.00
2018-03-31T13:45:23.483Z,46.10
2018-03-31T13:47:49.555Z,47.40
2018-03-31T13:50:15.624Z,45.40
2018-03-31T13:52:41.705Z,44.80
2018-03-31T13:55:07.735Z,45.30
2018-03-31T13:57:33.948Z,45.70
2018-03-31T14:00:00.016Z,46.10
2018-03-31T14:02:26.092Z,44.80
2018-03-31T14:04:52.131Z,42.70
2018-03-31T14:07:18.206Z,41.10
2018-03-31T14:09:44.243Z,38.90
2018-03-31T14:12:10.311Z,37.10
2018-03-31T14:14:36.350Z,34.20
2018-03-31T14:17:02.427Z,29.90
2018-03-31T14:19:28.480Z,29.10
2018-03-31T14:21:55.312Z,27.80
2018-03-31T14:24:21.468Z,27.80
2018-03-31T14:26:47.608Z,29.20
2018-03-31T14:29:13.677Z,31.90
2018-03-31T14:31:39.711Z,34.40
2018-03-31T14:34:05.799Z,36.30
2018-03-31T14:36:31.831Z,33.20
2018-03-31T14:38:57.905Z,30.00
2018-03-31T14:41:24.067Z,28.30
2018-03-31T14:43:50.124Z,28.90
2018-03-31T14:46:16.425Z,28.00
2018-03-31T14:48:42.492Z,24.90
2018-03-31T14:51:08.532Z,25.30
2018-03-31T14:53:34.599Z,24.60
2018-03-31T14:56:00.635Z,25.40
2018-03-31T14:58:26.703Z,27.50
2018-03-31T15:00:52.780Z,29.30
2018-03-31T15:03:24.978Z,30.20
2018-03-31T15:05:51.031Z,32.10
2018-03-31T15:08:17.088Z,33.20
2018-03-31T15:10:43.138Z,35.20
2018-03-31T15:13:09.195Z,37.40
2018-03-31T15:15:35.247Z,38.60
2018-03-31T15:18:01.328Z,39.60
2018-03-31T15:20:27.779Z,39.00
2018-03-31T15:22:53.856Z,38.60
2018-03-31T15:25:20.640Z,35.10
2018-03-31T15:27:47.095Z,34.90
2018-03-31T15:30:13.171Z,32.50
2018-03-31T15:32:39.203Z,33.30
2018-03-31T15:35:05.268Z,32.10
2018-03-31T15:37:31.339Z,30.60
2018-03-31T15:39:57.453Z,29.20
2018-03-31T15:42:23.487Z,27.90
2018-03-31T15:44:49.540Z,27.70
2018-03-31T15:47:16.330Z,23.60
2018-03-31T15:49:42.412Z,23.60
2018-03-31T15:52:09.206Z,23.60
2018-03-31T15:54:35.272Z,23.60
2018-03-31T15:57:01.328Z,25.80
2018-03-31T15:59:27.387Z,28.10
2018-03-31T16:01:53.495Z,28.40
2018-03-31T16:04:19.548Z,30.00
2018-03-31T16:06:46.508Z,29.40
2018-03-31T16:09:12.564Z,28.90
2018-03-31T16:11:38.636Z,31.00
2018-03-31T16:14:04.699Z,34.00
2018-03-31T16:16:30.763Z,36.70
2018-03-31T16:18:56.847Z,35.00
2018-03-31T16:21:22.899Z,31.70
2018-03-31T16:23:48.983Z,28.90
2018-03-31T16:26:15.035Z,29.10
2018-03-31T16:28:41.119Z,27.40
2018-03-31T16:31:07.187Z,27.00
2018-03-31T16:33:33.244Z,26.10
2018-03-31T16:35:59.330Z,27.20
2018-03-31T16:38:25.400Z,26.30
2018-03-31T16:40:51.463Z,25.70
2018-03-31T16:43:17.932Z,26.00
2018-03-31T16:45:44.766Z,24.20
2018-03-31T16:48:10.798Z,24.20
2018-03-31T16:50:36.889Z,26.00
2018-03-31T16:53:03.499Z,25.60
2018-03-31T16:55:29.656Z,24.10
2018-03-31T16:57:55.751Z,24.80
2018-03-31T17:00:21.823Z,26.10
2018-03-31T17:02:47.856Z,25.00
2018-03-31T17:05:13.935Z,24.80
2018-03-31T17:07:39.987Z,26.00
2018-03-31T17:10:06.916Z,27.00
2018-03-31T17:12:32.968Z,26.90
2018-03-31T17:14:59.028Z,27.60
2018-03-31T17:17:26.314Z,32.40
2018-03-31T17:19:52.372Z,32.30
2018-03-31T17:22:18.439Z,35.10
2018-03-31T17:24:44.472Z,38.00
2018-03-31T17:27:10.537Z,40.90
2018-03-31T17:29:36.601Z,42.40
2018-03-31T17:32:02.675Z,43.20
2018-03-31T17:34:28.948Z,44.20
2018-03-31T17:36:55.044Z,44.20
2018-03-31T17:39:21.099Z,46.10
2018-03-31T17:41:47.155Z,46.80
2018-03-31T17:44:14.032Z,47.10
2018-03-31T17:46:40.115Z,47.00
2018-03-31T17:49:06.926Z,47.70
2018-03-31T17:51:33.012Z,47.70
2018-03-31T17:53:59.059Z,47.10
2018-03-31T17:56:25.124Z,48.70
2018-03-31T17:58:51.179Z,49.60
2018-03-31T18:01:17.288Z,49.60
2018-03-31T18:03:43.333Z,52.30
2018-03-31T18:06:09.481Z,51.80
2018-03-31T18:08:35.559Z,52.30
2018-03-31T18:11:01.633Z,53.10
2018-03-31T18:13:27.722Z,53.90
2018-03-31T18:15:53.771Z,53.60
2018-03-31T18:18:20.231Z,53.70
2018-03-31T18:20:46.295Z,53.70
2018-03-31T18:23:12.527Z,54.80
2018-03-31T18:25:38.573Z,55.20
2018-03-31T18:28:04.715Z,54.40
2018-03-31T18:30:30.803Z,55.90
2018-03-31T18:32:56.899Z,56.20
2018-03-31T18:35:22.948Z,56.50
2018-03-31T18:37:49.027Z,57.20
2018-03-31T18:40:15.101Z,57.30
2018-03-31T18:42:41.915Z,58.70
2018-03-31T18:45:08.705Z,58.90
2018-03-31T18:47:34.771Z,58.90
2018-03-31T18:50:01.588Z,59.30
2018-03-31T18:52:27.664Z,59.30
2018-03-31T18:54:53.725Z,59.80
2018-03-31T18:57:19.784Z,59.30
2018-03-31T18:59:45.868Z,57.80
2018-03-31T19:02:11.912Z,57.00
2018-03-31T19:04:37.976Z,58.00
2018-03-31T19:07:04.022Z,57.40
2018-03-31T19:09:30.215Z,56.70
2018-03-31T19:11:56.591Z,57.00
2018-03-31T19:14:22.659Z,58.70
2018-03-31T19:16:54.718Z,60.10
2018-03-31T19:19:20.794Z,61.10
2018-03-31T19:21:46.863Z,61.90
2018-03-31T19:24:12.934Z,62.90
2018-03-31T19:26:38.970Z,64.50
2018-03-31T19:29:05.044Z,65.50
2018-03-31T19:31:31.104Z,66.10
2018-03-31T19:33:57.176Z,67.30
2018-03-31T19:36:23.229Z,67.80
2018-03-31T19:38:49.300Z,68.30
2018-03-31T19:41:15.351Z,69.50
2018-03-31T19:43:41.404Z,70.20
2018-03-31T19:46:07.447Z,70.40
2018-03-31T19:48:33.514Z,71.00
2018-03-31T19:50:59.576Z,71.80
2018-03-31T19:53:25.702Z,72.70
2018-03-31T19:55:51.767Z,73.30
2018-03-31T19:58:17.820Z,73.70
2018-03-31T20:00:43.898Z,74.90
2018-03-31T20:03:09.947Z,75.50
2018-03-31T20:05:36.379Z,75.70
2018-03-31T20:08:02.440Z,75.80
2018-03-31T20:10:28.509Z,76.10
2018-03-31T20:12:54.571Z,76.40
2018-03-31T20:15:20.627Z,76.70
2018-03-31T20:17:46.667Z,75.50
2018-03-31T20:20:12.732Z,75.30
2018-03-31T20:22:38.774Z,74.70
2018-03-31T20:25:04.840Z,74.50
2018-03-31T20:27:30.927Z,75.00
2018-03-31T20:29:56.984Z,74.00
2018-03-31T20:32:23.027Z,74.10
2018-03-31T20:34:49.624Z,73.50
2018-03-31T20:37:15.679Z,73.00
2018-03-31T20:39:41.725Z,73.40
2018-03-31T20:42:07.791Z,72.90
2018-03-31T20:44:33.836Z,72.00
2018-03-31T20:46:59.906Z,72.50
2018-03-31T20:49:25.943Z,72.90
2018-03-31T20:51:52.142Z,73.30
2018-03-31T20:54:18.209Z,73.80
2018-03-31T20:56:44.272Z,74.60
2018-03-31T20:59:10.323Z,75.00
2018-03-31T21:01:36.392Z,77.50
2018-03-31T21:04:02.447Z,77.10
2018-03-31T21:06:28.525Z,78.40
2018-03-31T21:08:54.569Z,79.60
2018-03-31T21:11:20.639Z,79.70
2018-03-31T21:13:46.704Z,80.00
2018-03-31T21:16:12.782Z,81.00
2018-03-31T21:18:38.885Z,81.40
2018-03-31T21:21:04.971Z,81.10
2018-03-31T21:23:31.018Z,81.70
2018-03-31T21:25:57.107Z,82.40
2018-03-31T21:28:23.183Z,83.10
2018-03-31T21:30:49.244Z,82.60
2018-03-31T21:33:15.334Z,82.80
2018-03-31T21:35:41.429Z,82.60
2018-03-31T21:38:08.204Z,82.90
2018-03-31T21:40:34.268Z,82.80
2018-03-31T21:43:01.112Z,82.80
2018-03-31T21:45:27.137Z,82.80
2018-03-31T21:47:53.952Z,83.40
2018-03-31T21:50:20.019Z,83.30
2018-03-31T21:52:46.083Z,82.30
2018-03-31T21:55:12.134Z,82.40
2018-03-31T21:57:38.410Z,83.10
2018-03-31T22:00:04.452Z,82.00
2018-03-31T22:02:30.504Z,82.00
2018-03-31T22:04:56.548Z,81.90
2018-03-31T22:07:22.623Z,81.50
2018-03-31T22:09:48.668Z,81.60
2018-03-31T22:12:14.735Z,81.60
2018-03-31T22:14:47.350Z,81.20
2018-03-31T22:17:13.444Z,82.00
2018-03-31T22:19:39.579Z,81.40
2018-03-31T22:22:05.655Z,82.40
2018-03-31T22:24:31.735Z,83.50
2018-03-31T22:26:57.788Z,82.00
2018-03-31T22:29:23.870Z,82.50
2018-03-31T22:31:49.963Z,83.60
2018-03-31T22:34:16.019Z,83.90
2018-03-31T22:36:42.055Z,83.90
2018-03-31T22:39:08.177Z,82.70
2018-03-31T22:41:34.197Z,84.20
2018-03-31T22:44:00.279Z,84.10
2018-03-31T22:46:26.330Z,85.80
2018-03-31T22:48:52.400Z,87.10
2018-03-31T22:51:19.195Z,87.80
2018-03-31T22:53:45.276Z,87.80
2018-03-31T22:56:12.056Z,87.70
2018-03-31T22:58:38.567Z,87.60
2018-03-31T23:01:04.622Z,86.90
2018-03-31T23:03:30.691Z,87.60
2018-03-31T23:05:56.729Z,87.30
2018-03-31T23:08:22.802Z,85.90
2018-03-31T23:10:48.867Z,85.90
2018-03-31T23:13:14.960Z,86.50
2018-03-31T23:15:41.012Z,86.00
2018-03-31T23:18:07.082Z,86.50
2018-03-31T23:20:33.175Z,85.50
2018-03-31T23:22:59.236Z,87.00
2018-03-31T23:25:25.298Z,86.30
2018-03-31T23:27:51.336Z,85.80
2018-03-31T23:30:17.402Z,86.30
2018-03-31T23:32:43.442Z,86.30
2018-03-31T23:35:09.532Z,86.80
2018-03-31T23:37:35.566Z,87.20
2018-03-31T23:40:02.431Z,88.10
2018-03-31T23:42:28.483Z,87.90
2018-03-31T23:44:54.899Z,87.50
2018-03-31T23:47:20.958Z,87.80
2018-03-31T23:49:47.285Z,88.60
2018-03-31T23:52:13.357Z,88.10
2018-03-31T23:54:39.927Z,88.10
2018-03-31T23:57:05.971Z,88.70
2018-03-31T23:59:32.101Z,88.10
